Time;durP1;ratioP1;P1;durP2;ratioP2;P2;SDS_P1;SDS_P2;PMS_P1;PMS_P2;Temp;Humidity;BMP_temperature;BMP_pressure;BME280_temperature;BME280_humidity;BME280_pressure;Samples;Min_cycle;Max_cycle;Signal;HPM_P1;HPM_P2
2023/04/26 00:00:23;;;;;;;11.33;5.40;;;5.00;99.90;;;;;;6241866;23;20015;-74
2023/04/26 00:02:49;;;;;;;9.90;5.90;;;5.00;99.90;;;;;;6242558;22;20000;-74
2023/04/26 00:05:15;;;;;;;7.17;4.97;;;5.00;99.90;;;;;;6239675;23;20008;-74
2023/04/26 00:07:41;;;;;;;8.13;4.77;;;5.00;99.90;;;;;;6242720;22;20011;-75
2023/04/26 00:10:09;;;;;;;9.67;5.23;;;4.90;99.90;;;;;;6242281;22;20472;-74
2023/04/26 00:12:35;;;;;;;9.43;5.30;;;4.90;99.90;;;;;;6242191;22;20008;-74
2023/04/26 00:15:01;;;;;;;7.53;5.20;;;4.90;99.90;;;;;;6242439;22;20008;-74
2023/04/26 00:17:27;;;;;;;9.03;5.37;;;4.90;99.90;;;;;;6241812;22;20011;-74
2023/04/26 00:19:52;;;;;;;10.40;5.77;;;4.80;99.90;;;;;;6241861;23;20011;-74
2023/04/26 00:22:18;;;;;;;9.10;5.53;;;4.80;99.90;;;;;;6242017;23;20088;-74
2023/04/26 00:24:43;;;;;;;9.40;5.00;;;4.80;99.90;;;;;;6242299;23;20000;-74
2023/04/26 00:27:09;;;;;;;15.13;6.10;;;4.80;99.90;;;;;;6242467;23;20425;-74
2023/04/26 00:29:36;;;;;;;9.83;5.27;;;4.70;99.90;;;;;;6240074;23;20422;-75
2023/04/26 00:32:02;;;;;;;17.97;6.83;;;4.70;99.90;;;;;;6241719;22;20011;-74
2023/04/26 00:34:32;;;;;;;11.67;5.80;;;4.70;99.90;;;;;;6241494;22;20008;-74
2023/04/26 00:36:57;;;;;;;11.23;7.20;;;4.70;99.90;;;;;;6242429;22;20356;-74
2023/04/26 00:39:23;;;;;;;9.63;5.90;;;4.60;99.90;;;;;;6240492;23;20008;-74
2023/04/26 00:41:49;;;;;;;10.37;6.73;;;4.60;99.90;;;;;;6242094;23;20079;-73
2023/04/26 00:44:14;;;;;;;12.47;6.20;;;4.60;99.90;;;;;;6241179;23;20384;-74
2023/04/26 00:46:40;;;;;;;13.27;6.37;;;4.50;99.90;;;;;;6240354;23;20023;-73
2023/04/26 00:49:06;;;;;;;17.23;6.27;;;4.50;99.90;;;;;;6241394;23;20000;-74
2023/04/26 00:51:31;;;;;;;13.37;5.60;;;4.60;99.90;;;;;;6241742;22;20126;-74
2023/04/26 00:53:58;;;;;;;12.93;6.83;;;4.50;99.90;;;;;;6242118;22;20011;-74
2023/04/26 00:56:23;;;;;;;12.73;6.43;;;4.50;99.90;;;;;;6242029;23;20039;-74
2023/04/26 00:58:49;;;;;;;12.63;6.17;;;4.50;99.90;;;;;;6239975;23;20481;-73
2023/04/26 01:01:15;;;;;;;12.27;6.10;;;4.40;99.90;;;;;;6242175;22;20666;-74
2023/04/26 01:03:41;;;;;;;8.77;6.03;;;4.40;99.90;;;;;;6241904;23;20325;-74
2023/04/26 01:06:07;;;;;;;12.33;6.73;;;4.40;99.90;;;;;;6242456;22;20005;-74
2023/04/26 01:08:32;;;;;;;12.80;6.17;;;4.30;99.90;;;;;;6242104;23;20068;-75
2023/04/26 01:10:58;;;;;;;15.57;6.80;;;4.30;99.90;;;;;;6242216;22;20378;-74
2023/04/26 01:13:24;;;;;;;14.27;6.77;;;4.30;99.90;;;;;;6243730;23;20004;-74
2023/04/26 01:15:50;;;;;;;9.77;7.00;;;4.30;99.90;;;;;;6244074;22;20042;-74
2023/04/26 01:18:16;;;;;;;10.60;7.03;;;4.20;99.90;;;;;;6242585;22;20043;-74
2023/04/26 01:20:41;;;;;;;15.27;6.90;;;4.20;99.90;;;;;;6241595;23;20028;-74
2023/04/26 01:23:10;;;;;;;12.20;6.70;;;4.20;99.90;;;;;;6241754;23;20004;-74
2023/04/26 01:25:36;;;;;;;11.80;6.53;;;4.20;99.90;;;;;;6239996;23;20008;-74
2023/04/26 01:28:02;;;;;;;11.97;6.10;;;4.20;99.90;;;;;;6240556;23;20370;-74
2023/04/26 01:30:27;;;;;;;15.07;7.53;;;4.10;99.90;;;;;;6240031;22;20004;-74
2023/04/26 01:32:53;;;;;;;17.07;7.37;;;4.10;99.90;;;;;;6239893;23;20102;-74
2023/04/26 01:35:18;;;;;;;10.53;6.47;;;4.10;99.90;;;;;;6241735;23;20079;-74
2023/04/26 01:37:44;;;;;;;15.33;7.37;;;4.10;99.90;;;;;;6241694;23;20004;-74
2023/04/26 01:40:10;;;;;;;14.13;7.43;;;4.00;99.90;;;;;;6240557;23;20011;-75
2023/04/26 01:42:35;;;;;;;11.93;6.67;;;4.00;99.90;;;;;;6242808;22;20004;-74
2023/04/26 01:45:01;;;;;;;13.07;6.63;;;4.00;99.90;;;;;;6243092;23;20079;-74
2023/04/26 01:47:27;;;;;;;12.87;7.13;;;3.90;99.90;;;;;;6241941;23;20011;-75
2023/04/26 01:49:52;;;;;;;13.83;6.40;;;4.00;99.90;;;;;;6243525;23;20075;-74
2023/04/26 01:52:18;;;;;;;14.23;8.07;;;3.90;99.90;;;;;;6243526;23;20024;-74
2023/04/26 01:54:43;;;;;;;15.77;8.80;;;3.90;99.90;;;;;;6243699;23;20000;-74
2023/04/26 01:57:09;;;;;;;12.97;7.87;;;3.90;99.90;;;;;;6243679;23;20303;-74
2023/04/26 01:59:34;;;;;;;12.50;8.07;;;3.90;99.90;;;;;;6242974;23;20370;-74
2023/04/26 02:02:00;;;;;;;20.07;8.50;;;3.80;99.90;;;;;;6243485;23;20023;-74
2023/04/26 02:04:27;;;;;;;14.87;7.97;;;3.80;99.90;;;;;;6243582;23;20004;-74
2023/04/26 02:06:52;;;;;;;13.40;7.50;;;3.80;99.90;;;;;;6243466;22;20007;-74
2023/04/26 02:09:18;;;;;;;22.70;9.00;;;3.80;99.90;;;;;;6243315;23;20005;-74
2023/04/26 02:11:44;;;;;;;13.60;8.87;;;3.70;99.90;;;;;;6243956;22;20000;-74
2023/04/26 02:14:09;;;;;;;12.57;8.77;;;3.70;99.90;;;;;;6241184;23;20023;-74
2023/04/26 02:16:35;;;;;;;13.23;7.77;;;3.70;99.90;;;;;;6243354;22;20005;-74
2023/04/26 02:19:02;;;;;;;14.73;9.13;;;3.70;99.90;;;;;;6241614;23;20032;-74
2023/04/26 02:21:29;;;;;;;21.20;9.50;;;3.70;99.90;;;;;;6243535;22;19996;-74
2023/04/26 02:23:55;;;;;;;21.43;9.23;;;3.60;99.90;;;;;;6241735;23;20007;-74
2023/04/26 02:26:20;;;;;;;13.37;9.83;;;3.60;99.90;;;;;;6241960;23;20000;-74
2023/04/26 02:28:46;;;;;;;21.90;11.37;;;3.60;99.90;;;;;;6243060;23;20000;-74
2023/04/26 02:31:11;;;;;;;25.13;10.57;;;3.60;99.90;;;;;;6242776;23;20083;-74
2023/04/26 02:33:37;;;;;;;16.50;10.30;;;3.60;99.90;;;;;;6243551;23;20016;-74
2023/04/26 02:36:06;;;;;;;21.90;10.70;;;3.60;99.90;;;;;;6242639;23;20055;-74
2023/04/26 02:38:35;;;;;;;16.57;10.17;;;3.60;99.90;;;;;;6241666;23;20000;-74
2023/04/26 02:41:02;;;;;;;20.93;10.70;;;3.60;99.90;;;;;;6243278;22;20004;-74
2023/04/26 02:43:28;;;;;;;16.70;10.03;;;3.60;99.90;;;;;;6242805;22;20000;-74
2023/04/26 02:45:57;;;;;;;16.77;10.50;;;3.50;99.90;;;;;;6242734;22;20000;-74
2023/04/26 02:48:22;;;;;;;19.80;10.23;;;3.50;99.90;;;;;;6243230;22;20030;-74
2023/04/26 02:50:48;;;;;;;17.80;10.67;;;3.50;99.90;;;;;;6243337;23;20373;-74
2023/04/26 02:53:16;;;;;;;14.50;10.03;;;3.50;99.90;;;;;;6242717;23;20011;-74
2023/04/26 02:55:41;;;;;;;21.63;10.83;;;3.50;99.90;;;;;;6243043;22;20050;-74
2023/04/26 02:58:07;;;;;;;18.07;10.57;;;3.50;99.90;;;;;;6241406;23;20004;-74
2023/04/26 03:00:33;;;;;;;20.53;10.63;;;3.40;99.90;;;;;;6242806;23;20424;-74
2023/04/26 03:02:58;;;;;;;18.97;11.37;;;3.40;99.90;;;;;;6241408;23;20491;-74
2023/04/26 03:05:24;;;;;;;20.37;11.80;;;3.40;99.90;;;;;;6242025;23;20067;-74
2023/04/26 03:07:50;;;;;;;28.20;12.93;;;3.40;99.90;;;;;;6242112;22;19996;-76
2023/04/26 03:10:15;;;;;;;21.83;12.10;;;3.40;99.90;;;;;;6239900;23;20018;-77
2023/04/26 03:12:41;;;;;;;22.60;12.70;;;3.40;99.90;;;;;;6240965;22;20004;-77
2023/04/26 03:15:07;;;;;;;22.43;12.23;;;3.40;99.90;;;;;;6241600;23;19996;-77
2023/04/26 03:17:32;;;;;;;23.27;11.87;;;3.40;99.90;;;;;;6242633;23;20479;-76
2023/04/26 03:19:58;;;;;;;25.27;12.07;;;3.40;99.90;;;;;;6242849;23;20000;-76
2023/04/26 03:22:23;;;;;;;25.00;12.90;;;3.40;99.90;;;;;;6243046;23;20007;-76
2023/04/26 03:24:50;;;;;;;24.07;12.63;;;3.40;99.90;;;;;;6243072;23;20028;-76
2023/04/26 03:27:15;;;;;;;18.90;12.23;;;3.40;99.90;;;;;;6241965;22;20054;-76
2023/04/26 03:29:41;;;;;;;23.20;13.23;;;3.40;99.90;;;;;;6243159;23;20453;-76
2023/04/26 03:32:06;;;;;;;23.20;12.50;;;3.40;99.90;;;;;;6242541;23;20480;-76
2023/04/26 03:34:32;;;;;;;21.17;13.17;;;3.40;99.90;;;;;;6242874;23;20071;-74
2023/04/26 03:36:57;;;;;;;22.43;13.00;;;3.30;99.90;;;;;;6243016;23;20008;-73
2023/04/26 03:39:23;;;;;;;19.53;12.67;;;3.30;99.90;;;;;;6242311;23;20111;-74
2023/04/26 03:41:48;;;;;;;27.60;13.63;;;3.30;99.90;;;;;;6242454;23;20027;-74
2023/04/26 03:44:14;;;;;;;23.67;12.00;;;3.30;99.90;;;;;;6242145;23;20015;-74
2023/04/26 03:46:40;;;;;;;24.70;13.27;;;3.30;99.90;;;;;;6242955;23;20007;-74
2023/04/26 03:49:05;;;;;;;23.47;13.37;;;3.30;99.90;;;;;;6241992;23;20527;-74
2023/04/26 03:51:31;;;;;;;23.30;12.83;;;3.20;99.90;;;;;;6242796;22;20011;-74
2023/04/26 03:53:58;;;;;;;20.03;12.50;;;3.20;99.90;;;;;;6242722;22;19996;-74
2023/04/26 03:56:23;;;;;;;23.23;12.80;;;3.20;99.90;;;;;;6240492;23;20091;-74
2023/04/26 03:58:49;;;;;;;21.60;13.47;;;3.20;99.90;;;;;;6242694;23;20024;-74
2023/04/26 04:01:15;;;;;;;23.63;12.23;;;3.20;99.90;;;;;;6242096;22;20004;-74
2023/04/26 04:03:40;;;;;;;21.40;11.80;;;3.10;99.90;;;;;;6242380;23;20399;-74
2023/04/26 04:06:06;;;;;;;22.87;11.93;;;3.10;99.90;;;;;;6242610;23;20011;-74
2023/04/26 04:08:32;;;;;;;27.60;12.93;;;3.10;99.90;;;;;;6242276;22;20049;-74
2023/04/26 04:10:58;;;;;;;24.63;14.17;;;3.10;99.90;;;;;;6242316;22;20008;-74
2023/04/26 04:13:23;;;;;;;28.40;13.27;;;3.10;99.90;;;;;;6241886;23;20083;-74
2023/04/26 04:15:50;;;;;;;23.03;12.60;;;3.10;99.90;;;;;;6242733;23;20082;-74
2023/04/26 04:18:16;;;;;;;28.40;13.60;;;3.00;99.90;;;;;;6241689;23;20035;-74
2023/04/26 04:20:41;;;;;;;23.90;11.97;;;3.00;99.90;;;;;;6242659;23;20000;-73
2023/04/26 04:23:07;;;;;;;21.50;12.77;;;3.00;99.90;;;;;;6242120;23;20053;-74
2023/04/26 04:25:33;;;;;;;31.53;14.00;;;3.00;99.90;;;;;;6241429;23;20065;-74
2023/04/26 04:28:02;;;;;;;24.67;12.40;;;3.00;99.90;;;;;;6242467;22;20330;-74
2023/04/26 04:30:29;;;;;;;27.97;12.80;;;3.00;99.90;;;;;;6240436;23;20038;-74
2023/04/26 04:32:57;;;;;;;22.10;12.67;;;3.00;99.90;;;;;;6242292;22;20016;-74
2023/04/26 04:35:27;;;;;;;29.50;13.10;;;3.00;99.90;;;;;;6241791;22;20008;-74
2023/04/26 04:37:55;;;;;;;26.73;13.27;;;3.00;99.90;;;;;;6242429;22;20054;-74
2023/04/26 04:40:21;;;;;;;30.47;13.17;;;3.00;99.90;;;;;;6241403;22;20004;-74
2023/04/26 04:42:46;;;;;;;26.77;14.13;;;3.00;99.90;;;;;;6242630;22;20492;-74
2023/04/26 04:45:13;;;;;;;25.63;12.87;;;3.00;99.90;;;;;;6242118;23;20079;-74
2023/04/26 04:47:39;;;;;;;25.77;14.10;;;3.00;99.90;;;;;;6242159;22;20034;-74
2023/04/26 04:50:05;;;;;;;21.00;12.77;;;3.00;99.90;;;;;;6240738;23;20338;-74
2023/04/26 04:52:32;;;;;;;22.40;13.80;;;3.00;99.90;;;;;;6241740;22;20001;-74
2023/04/26 04:54:58;;;;;;;23.17;12.93;;;3.00;99.90;;;;;;6241953;22;19996;-74
2023/04/26 04:57:23;;;;;;;22.13;12.43;;;3.00;99.90;;;;;;6240598;23;20004;-74
2023/04/26 04:59:49;;;;;;;23.17;12.97;;;3.00;99.90;;;;;;6242038;23;20007;-74
2023/04/26 05:02:14;;;;;;;28.13;13.97;;;3.10;99.90;;;;;;6241736;23;20010;-74
2023/04/26 05:04:40;;;;;;;30.80;15.00;;;3.10;99.90;;;;;;6242235;23;20079;-74
2023/04/26 05:07:05;;;;;;;26.47;14.53;;;3.10;99.90;;;;;;6242209;23;20067;-74
2023/04/26 05:09:31;;;;;;;22.57;14.30;;;3.10;99.90;;;;;;6240918;23;20004;-74
2023/04/26 05:11:56;;;;;;;25.03;13.17;;;3.10;99.90;;;;;;6242107;23;20012;-74
2023/04/26 05:14:22;;;;;;;26.20;14.63;;;3.20;99.90;;;;;;6240497;23;20034;-74
2023/04/26 05:16:48;;;;;;;23.13;13.77;;;3.20;99.90;;;;;;6242092;22;20000;-74
2023/04/26 05:19:13;;;;;;;24.10;13.87;;;3.20;99.90;;;;;;6244182;23;20330;-73
2023/04/26 05:21:39;;;;;;;21.30;13.17;;;3.30;99.90;;;;;;6243985;23;20007;-76
2023/04/26 05:24:05;;;;;;;26.00;12.70;;;3.30;99.90;;;;;;6241924;23;20055;-76
2023/04/26 05:26:30;;;;;;;22.30;13.20;;;3.40;99.90;;;;;;6243812;22;20075;-77
2023/04/26 05:28:56;;;;;;;25.50;14.03;;;3.50;99.90;;;;;;6243881;23;20004;-77
2023/04/26 05:31:21;;;;;;;28.13;15.10;;;3.60;99.90;;;;;;6243678;23;20004;-77
2023/04/26 05:33:47;;;;;;;23.17;12.93;;;3.60;99.90;;;;;;6243732;23;20012;-76
2023/04/26 05:36:13;;;;;;;20.90;12.33;;;3.70;99.90;;;;;;6243635;23;20028;-77
2023/04/26 05:38:38;;;;;;;27.93;14.33;;;3.80;99.90;;;;;;6243635;23;19996;-76
2023/04/26 05:41:04;;;;;;;26.23;14.03;;;3.90;99.90;;;;;;6243814;23;20008;-77
2023/04/26 05:43:29;;;;;;;28.57;14.47;;;4.00;99.90;;;;;;6244152;23;20303;-76
2023/04/26 05:45:55;;;;;;;23.97;14.53;;;4.10;99.90;;;;;;6243550;23;20437;-77
2023/04/26 05:48:22;;;;;;;25.53;13.70;;;4.20;99.90;;;;;;6243799;23;19996;-76
2023/04/26 05:50:49;;;;;;;21.87;13.00;;;4.20;99.90;;;;;;6243724;22;20031;-76
2023/04/26 05:53:15;;;;;;;23.20;13.00;;;4.30;99.90;;;;;;6243375;22;20007;-74
2023/04/26 05:55:41;;;;;;;25.70;13.00;;;4.40;99.90;;;;;;6243917;22;20001;-74
2023/04/26 05:58:07;;;;;;;23.30;11.83;;;4.40;99.90;;;;;;6243560;23;20008;-74
2023/04/26 06:00:33;;;;;;;23.83;11.97;;;4.50;99.90;;;;;;6243709;22;20457;-74
2023/04/26 06:02:58;;;;;;;21.50;13.17;;;4.60;99.90;;;;;;6243825;22;20027;-74
2023/04/26 06:05:24;;;;;;;24.50;12.33;;;4.60;99.90;;;;;;6243441;23;20012;-74
2023/04/26 06:07:50;;;;;;;20.87;12.53;;;4.70;99.90;;;;;;6243078;23;20031;-74
2023/04/26 06:10:16;;;;;;;17.07;11.10;;;4.80;99.90;;;;;;6243375;22;20008;-74
2023/04/26 06:12:42;;;;;;;16.73;10.30;;;4.80;99.90;;;;;;6244058;23;20039;-74
2023/04/26 06:15:08;;;;;;;21.07;11.63;;;4.90;99.90;;;;;;6243378;23;20050;-74
2023/04/26 06:17:33;;;;;;;20.53;11.40;;;5.10;99.90;;;;;;6243461;22;20000;-74
2023/04/26 06:20:00;;;;;;;21.10;12.20;;;5.20;99.90;;;;;;6243279;23;20414;-75
2023/04/26 06:22:25;;;;;;;21.80;12.87;;;5.30;99.90;;;;;;6240823;23;20012;-75
2023/04/26 06:24:51;;;;;;;29.80;12.83;;;5.40;99.90;;;;;;6243558;22;20011;-75
2023/04/26 06:27:16;;;;;;;19.20;10.70;;;5.60;99.90;;;;;;6242892;23;20004;-75
2023/04/26 06:29:42;;;;;;;22.40;12.17;;;5.70;99.90;;;;;;6242767;23;20004;-75
2023/04/26 06:32:08;;;;;;;24.67;11.43;;;5.90;99.90;;;;;;6243003;22;20020;-75
2023/04/26 06:34:34;;;;;;;18.17;11.70;;;6.10;99.90;;;;;;6243188;23;20000;-75
2023/04/26 06:37:00;;;;;;;13.33;9.47;;;6.20;99.90;;;;;;6242782;22;20000;-75
2023/04/26 06:39:25;;;;;;;20.23;8.87;;;6.30;99.90;;;;;;6243149;22;20470;-76
2023/04/26 06:41:51;;;;;;;11.60;8.97;;;6.40;99.90;;;;;;6243770;23;20008;-76
2023/04/26 06:44:16;;;;;;;18.23;10.10;;;6.60;99.90;;;;;;6242527;23;20027;-75
2023/04/26 06:46:42;;;;;;;20.83;10.73;;;6.70;99.90;;;;;;6243414;23;20000;-75
2023/04/26 06:49:08;;;;;;;20.87;8.63;;;6.80;99.90;;;;;;6242844;23;20062;-75
2023/04/26 06:51:35;;;;;;;16.33;9.00;;;6.80;99.90;;;;;;6242549;22;20609;-75
2023/04/26 06:54:01;;;;;;;17.60;9.13;;;6.90;99.90;;;;;;6243113;22;20054;-75
2023/04/26 06:56:26;;;;;;;18.10;9.37;;;7.10;99.90;;;;;;6242958;22;20000;-75
2023/04/26 06:59:03;;;;;;;21.90;10.37;;;7.10;99.90;;;;;;6243411;23;20004;-75
2023/04/26 07:01:32;;;;;;;12.93;8.33;;;7.30;99.90;;;;;;6242873;22;20102;-75
2023/04/26 07:04:00;;;;;;;12.83;7.30;;;7.40;99.90;;;;;;6242341;22;20027;-75
2023/04/26 07:06:26;;;;;;;17.07;7.33;;;7.40;99.90;;;;;;6242763;22;20103;-75
2023/04/26 07:08:52;;;;;;;14.03;8.03;;;7.50;99.90;;;;;;6241745;23;20035;-75
2023/04/26 07:11:18;;;;;;;18.33;7.63;;;7.60;99.90;;;;;;6242522;22;20401;-75
2023/04/26 07:13:43;;;;;;;14.60;7.80;;;7.60;99.90;;;;;;6243347;22;20429;-75
2023/04/26 07:16:09;;;;;;;17.30;6.43;;;7.80;99.90;;;;;;6242636;23;20020;-75
2023/04/26 07:18:35;;;;;;;12.07;6.60;;;7.90;99.90;;;;;;6242183;23;20476;-75
2023/04/26 07:21:00;;;;;;;14.23;6.83;;;8.00;99.90;;;;;;6242862;23;20012;-76
2023/04/26 07:23:28;;;;;;;16.67;6.67;;;8.10;99.90;;;;;;6242597;23;20000;-75
2023/04/26 07:25:54;;;;;;;11.83;5.73;;;8.20;99.90;;;;;;6243050;22;20000;-75
2023/04/26 07:28:20;;;;;;;10.20;5.73;;;8.40;99.90;;;;;;6242543;22;20015;-75
2023/04/26 07:30:46;;;;;;;8.57;4.50;;;8.40;99.90;;;;;;6242221;22;20426;-76
2023/04/26 07:33:12;;;;;;;9.80;4.73;;;8.50;99.90;;;;;;6240915;23;20442;-79
2023/04/26 07:35:37;;;;;;;16.40;5.70;;;8.60;99.90;;;;;;6240495;23;20083;-72
2023/04/26 07:38:03;;;;;;;10.80;5.17;;;8.70;99.90;;;;;;6241647;23;20032;-72
2023/04/26 07:40:30;;;;;;;10.80;4.83;;;8.80;99.90;;;;;;6241265;23;20080;-73
2023/04/26 07:42:55;;;;;;;8.83;4.63;;;8.90;99.90;;;;;;6240872;23;20012;-72
2023/04/26 07:45:21;;;;;;;10.40;4.40;;;9.10;99.90;;;;;;6239305;23;20066;-72
2023/04/26 07:47:47;;;;;;;6.00;3.10;;;9.20;99.90;;;;;;6239766;23;20004;-72
2023/04/26 07:50:12;;;;;;;7.43;3.37;;;9.30;99.90;;;;;;6241270;23;20004;-73
2023/04/26 07:52:38;;;;;;;8.27;3.10;;;9.40;99.90;;;;;;6241941;22;20010;-73
2023/04/26 07:55:04;;;;;;;9.37;2.97;;;9.40;99.90;;;;;;6241563;23;19996;-73
2023/04/26 07:57:30;;;;;;;9.15;3.17;;;9.50;99.90;;;;;;6242111;22;20522;-73
2023/04/26 07:59:56;;;;;;;10.40;3.27;;;9.60;99.90;;;;;;6240356;23;20004;-73
2023/04/26 08:02:21;;;;;;;6.25;2.60;;;9.60;99.90;;;;;;6240135;22;20000;-74
2023/04/26 08:04:49;;;;;;;6.82;2.55;;;9.60;99.90;;;;;;6240511;23;20066;-73
2023/04/26 08:07:15;;;;;;;6.60;2.45;;;9.60;99.90;;;;;;6240966;22;20087;-73
2023/04/26 08:09:41;;;;;;;4.10;1.73;;;9.60;99.90;;;;;;6242041;22;20000;-74
2023/04/26 08:12:06;;;;;;;8.02;2.15;;;9.70;99.90;;;;;;6242599;23;20061;-73
2023/04/26 08:14:34;;;;;;;4.20;2.40;;;9.80;99.90;;;;;;6241862;22;19996;-74
2023/04/26 08:17:00;;;;;;;5.77;2.27;;;9.90;99.90;;;;;;6240046;23;20004;-73
2023/04/26 08:19:29;;;;;;;11.90;2.97;;;10.00;99.90;;;;;;6241494;22;20000;-73
2023/04/26 08:21:55;;;;;;;8.60;2.05;;;10.00;99.30;;;;;;6242006;22;20010;-73
2023/04/26 08:24:21;;;;;;;6.45;3.05;;;10.00;98.90;;;;;;6241279;22;20071;-74
2023/04/26 08:26:46;;;;;;;8.13;2.65;;;10.00;98.80;;;;;;6241832;22;20484;-73
2023/04/26 08:29:12;;;;;;;6.22;2.00;;;10.10;98.90;;;;;;6241275;23;20028;-74
2023/04/26 08:31:37;;;;;;;6.05;2.28;;;10.20;99.00;;;;;;6240618;23;20027;-73
2023/04/26 08:34:03;;;;;;;3.80;2.10;;;10.50;98.90;;;;;;6241272;23;20438;-73
2023/04/26 08:36:28;;;;;;;11.02;2.50;;;10.60;98.10;;;;;;6241416;22;20022;-73
2023/04/26 08:38:56;;;;;;;4.95;2.10;;;10.70;96.50;;;;;;6240482;23;20054;-72
2023/04/26 08:41:23;;;;;;;7.70;2.17;;;10.70;96.70;;;;;;6241362;22;20004;-73
2023/04/26 08:43:50;;;;;;;6.65;2.22;;;10.90;96.70;;;;;;6241661;22;20000;-73
2023/04/26 08:46:18;;;;;;;7.70;2.40;;;10.80;95.90;;;;;;6238702;23;20031;-73
2023/04/26 08:48:48;;;;;;;4.63;2.22;;;10.70;95.60;;;;;;6242352;22;20004;-73
2023/04/26 08:51:15;;;;;;;7.05;2.40;;;10.60;95.20;;;;;;6241569;22;20015;-72
2023/04/26 08:53:41;;;;;;;3.53;1.80;;;10.60;95.30;;;;;;6243998;22;20085;-72
2023/04/26 08:56:09;;;;;;;5.40;1.88;;;10.50;95.20;;;;;;6244127;22;20691;-72
2023/04/26 08:58:37;;;;;;;4.67;2.10;;;10.50;95.20;;;;;;6244264;22;20003;-72
2023/04/26 09:01:03;;;;;;;6.53;2.30;;;10.50;95.20;;;;;;6243914;22;20079;-73
2023/04/26 09:03:29;;;;;;;5.28;2.10;;;10.50;94.90;;;;;;6243830;22;20004;-72
2023/04/26 09:05:55;;;;;;;4.30;1.95;;;10.50;95.20;;;;;;6244383;23;20043;-72
2023/04/26 09:08:21;;;;;;;8.75;2.30;;;10.50;94.80;;;;;;6241911;23;20007;-72
2023/04/26 09:10:46;;;;;;;7.05;2.00;;;10.60;94.70;;;;;;6243775;22;20008;-72
2023/04/26 09:13:13;;;;;;;4.93;1.50;;;10.60;94.40;;;;;;6243319;23;20001;-72
2023/04/26 09:15:38;;;;;;;5.93;1.80;;;10.60;94.20;;;;;;6243649;22;20000;-72
2023/04/26 09:18:21;;;;;;;6.68;2.22;;;10.70;94.20;;;;;;6244205;23;20202;-72
2023/04/26 09:21:04;;;;;;;5.53;1.58;;;10.80;93.60;;;;;;6244252;22;20075;-72
2023/04/26 09:23:31;;;;;;;4.07;1.45;;;10.80;93.60;;;;;;6243741;22;20004;-72
2023/04/26 09:26:13;;;;;;;7.47;2.15;;;10.80;93.60;;;;;;6244257;22;20007;-72
2023/04/26 09:28:39;;;;;;;3.42;1.73;;;10.70;93.20;;;;;;6244380;22;20000;-72
2023/04/26 09:31:05;;;;;;;5.10;2.03;;;10.60;93.20;;;;;;6243522;23;20062;-72
2023/04/26 09:33:30;;;;;;;5.28;1.90;;;10.50;93.30;;;;;;6243421;22;20649;-71
2023/04/26 09:36:10;;;;;;;6.15;1.98;;;10.40;93.50;;;;;;6244114;23;20000;-71
2023/04/26 09:38:41;;;;;;;3.75;1.83;;;10.30;93.50;;;;;;6242628;23;20429;-72
2023/04/26 09:41:07;;;;;;;5.43;1.45;;;10.20;93.50;;;;;;6243783;22;20043;-72
2023/04/26 09:43:36;;;;;;;8.05;2.60;;;10.10;93.60;;;;;;6243269;23;20004;-72
2023/04/26 09:46:02;;;;;;;8.15;2.42;;;10.10;93.90;;;;;;6243638;23;20050;-72
2023/04/26 09:48:29;;;;;;;11.05;3.00;;;10.10;93.80;;;;;;6243228;23;20007;-72
2023/04/26 09:50:56;;;;;;;8.23;2.28;;;10.00;93.60;;;;;;6243697;22;20019;-72
2023/04/26 09:53:35;;;;;;;6.10;2.40;;;10.00;93.50;;;;;;6243230;22;19996;-72
2023/04/26 09:56:14;;;;;;;6.82;2.50;;;9.90;93.60;;;;;;6242161;23;20008;-74
2023/04/26 09:58:40;;;;;;;6.63;2.65;;;9.90;93.70;;;;;;6243556;22;20421;-72
2023/04/26 10:01:07;;;;;;;5.30;2.37;;;10.00;93.80;;;;;;6243435;23;20000;-72
2023/04/26 10:03:36;;;;;;;7.05;2.33;;;9.90;93.80;;;;;;6242737;22;20004;-72
2023/04/26 10:06:03;;;;;;;5.15;3.15;;;10.00;93.90;;;;;;6243577;22;20004;-72
2023/04/26 10:08:30;;;;;;;8.52;3.42;;;10.00;93.60;;;;;;6243323;22;20023;-72
2023/04/26 10:10:56;;;;;;;8.73;3.00;;;10.10;93.80;;;;;;6243756;22;20012;-72
2023/04/26 10:13:21;;;;;;;3.97;2.53;;;10.20;93.70;;;;;;6242541;23;20031;-72
2023/04/26 10:15:47;;;;;;;4.82;3.22;;;10.20;93.50;;;;;;6244106;23;20007;-72
2023/04/26 10:18:13;;;;;;;4.57;2.63;;;10.40;93.30;;;;;;6243906;22;20020;-72
2023/04/26 10:20:42;;;;;;;6.13;2.72;;;10.40;93.10;;;;;;6245215;23;20011;-71
2023/04/26 10:23:19;;;;;;;5.18;2.55;;;10.50;93.10;;;;;;6244112;22;20031;-72
2023/04/26 10:25:45;;;;;;;5.45;2.80;;;10.60;93.10;;;;;;6244084;22;20034;-72
2023/04/26 10:28:11;;;;;;;5.40;2.53;;;10.70;93.00;;;;;;6242763;23;20326;-72
2023/04/26 10:30:59;;;;;;;8.13;2.85;;;10.70;92.50;;;;;;6241736;23;20019;-72
2023/04/26 10:33:25;;;;;;;4.63;2.55;;;10.70;92.20;;;;;;6244867;22;20020;-72
2023/04/26 10:36:01;;;;;;;4.63;2.17;;;10.60;92.10;;;;;;6243615;23;20424;-72
2023/04/26 10:38:27;;;;;;;5.35;2.33;;;10.60;91.50;;;;;;6241215;23;20027;-72
2023/04/26 10:40:52;;;;;;;5.65;2.25;;;10.50;91.50;;;;;;6243449;23;20027;-72
2023/04/26 10:43:18;;;;;;;5.93;2.35;;;10.50;91.60;;;;;;6242446;23;20004;-72
2023/04/26 10:45:45;;;;;;;4.80;2.33;;;10.50;91.60;;;;;;6243656;22;20029;-72
2023/04/26 10:48:19;;;;;;;11.48;2.65;;;10.40;91.70;;;;;;6241339;23;20015;-72
2023/04/26 10:51:00;;;;;;;5.03;2.10;;;10.40;91.80;;;;;;6243280;23;20341;-72
2023/04/26 10:53:47;;;;;;;6.78;2.25;;;10.40;92.00;;;;;;6242664;23;20008;-72
2023/04/26 10:56:25;;;;;;;5.88;2.30;;;10.40;92.10;;;;;;6240848;23;20070;-72
2023/04/26 10:59:10;;;;;;;4.47;1.85;;;10.40;92.00;;;;;;6243337;23;20441;-72
2023/04/26 11:01:35;;;;;;;8.80;1.70;;;10.30;91.90;;;;;;6242961;22;20008;-72
2023/04/26 11:04:11;;;;;;;1.73;1.52;;;10.30;91.70;;;;;;6243213;23;20389;-72
2023/04/26 11:06:56;;;;;;;6.35;2.20;;;10.30;91.30;;;;;;6243139;22;20004;-72
2023/04/26 11:09:41;;;;;;;3.30;1.48;;;10.40;90.90;;;;;;6242480;22;20000;-72
2023/04/26 11:12:13;;;;;;;4.30;1.63;;;10.40;90.90;;;;;;6242392;22;19997;-72
2023/04/26 11:14:43;;;;;;;5.05;1.65;;;10.50;90.70;;;;;;6242710;22;20496;-73
2023/04/26 11:17:09;;;;;;;6.35;1.60;;;10.50;90.70;;;;;;6242960;22;20039;-72
2023/04/26 11:19:34;;;;;;;2.45;1.98;;;10.60;90.50;;;;;;6242539;22;20456;-72
2023/04/26 11:22:01;;;;;;;4.82;1.73;;;10.70;90.50;;;;;;6243112;23;20036;-72
2023/04/26 11:24:30;;;;;;;5.47;1.83;;;10.70;90.20;;;;;;6242167;22;20004;-72
2023/04/26 11:26:57;;;;;;;5.28;1.95;;;10.80;90.00;;;;;;6242566;22;20004;-72
2023/04/26 11:29:23;;;;;;;4.38;1.73;;;10.80;89.70;;;;;;6242430;22;20609;-72
2023/04/26 11:31:56;;;;;;;3.25;1.92;;;10.90;88.90;;;;;;6242939;22;20004;-73
2023/04/26 11:34:35;;;;;;;4.53;1.88;;;11.10;88.70;;;;;;6242312;22;20062;-72
2023/04/26 11:37:01;;;;;;;5.22;1.63;;;11.10;88.40;;;;;;6243155;22;20010;-72
2023/04/26 11:39:27;;;;;;;5.15;2.13;;;11.20;88.30;;;;;;6241882;22;20010;-72
2023/04/26 11:42:06;;;;;;;2.72;1.80;;;11.40;87.70;;;;;;6242953;22;20079;-72
2023/04/26 11:44:32;;;;;;;4.53;2.38;;;11.50;87.00;;;;;;6240709;23;19997;-72
2023/04/26 11:47:02;;;;;;;6.97;2.10;;;11.70;85.80;;;;;;6242918;22;20030;-72
2023/04/26 11:49:29;;;;;;;7.80;2.00;;;11.80;85.80;;;;;;6240886;23;20005;-71
2023/04/26 11:51:55;;;;;;;4.03;2.30;;;11.90;84.70;;;;;;6242748;22;20000;-72
2023/04/26 11:54:36;;;;;;;5.53;2.05;;;12.00;84.30;;;;;;6241611;22;20303;-72
2023/04/26 11:57:13;;;;;;;2.88;1.90;;;12.10;84.60;;;;;;6242469;22;20008;-72
2023/04/26 11:59:38;;;;;;;5.53;1.73;;;12.40;85.10;;;;;;6242190;22;20062;-72
2023/04/26 12:02:07;;;;;;;3.50;2.55;;;12.50;85.00;;;;;;6242556;23;20430;-72
2023/04/26 12:04:33;;;;;;;8.88;2.75;;;12.70;85.30;;;;;;6241928;22;20326;-72
2023/04/26 12:06:59;;;;;;;4.75;3.42;;;12.80;83.40;;;;;;6241836;23;20084;-73
2023/04/26 12:09:29;;;;;;;8.98;3.17;;;12.70;81.30;;;;;;6240514;23;20040;-72
2023/04/26 12:12:06;;;;;;;9.05;2.67;;;12.70;81.40;;;;;;6242647;22;20004;-71
2023/04/26 12:14:36;;;;;;;6.20;2.45;;;12.60;81.80;;;;;;6242138;22;20369;-72
2023/04/26 12:17:03;;;;;;;4.97;2.72;;;12.60;80.60;;;;;;6242456;22;20072;-72
2023/04/26 12:19:33;;;;;;;4.70;2.38;;;12.60;80.30;;;;;;6242110;22;20058;-72
2023/04/26 12:21:58;;;;;;;7.50;3.13;;;12.50;80.50;;;;;;6242494;22;20426;-70
2023/04/26 12:24:37;;;;;;;4.43;2.63;;;12.40;79.80;;;;;;6241818;23;20003;-87
2023/04/26 12:27:07;;;;;;;4.80;2.25;;;12.40;79.40;;;;;;6244427;22;20000;-87
2023/04/26 12:29:33;;;;;;;6.13;2.67;;;12.30;79.00;;;;;;6243576;22;20035;-86
2023/04/26 12:32:00;;;;;;;3.83;2.75;;;12.20;78.90;;;;;;6243959;22;20321;-85
2023/04/26 12:34:26;;;;;;;5.43;2.95;;;12.20;79.40;;;;;;6243312;22;19996;-84
2023/04/26 12:36:51;;;;;;;3.97;2.25;;;12.20;79.80;;;;;;6242837;23;20004;-85
2023/04/26 12:39:17;;;;;;;6.72;3.25;;;12.20;79.90;;;;;;6244272;23;20450;-88
2023/04/26 12:41:43;;;;;;;7.32;1.95;;;12.10;79.40;;;;;;6251112;23;19991;-88
2023/04/26 12:44:10;;;;;;;9.70;3.33;;;12.10;80.00;;;;;;6267632;23;20011;-88